sensor_id;sensor_type;location;lat;lon;timestamp;pressure;altitude;pressure_sealevel;temperature;humidity
6859;BME280;3468;42.824;23.240;2023-05-24T00:00:27;68340.44;;;10.53;100.00
6859;BME280;3468;42.824;23.240;2023-05-24T00:02:53;68390.28;;;10.43;100.00
6859;BME280;3468;42.824;23.240;2023-05-24T00:05:21;68304.19;;;10.43;100.00
6859;BME280;3468;42.824;23.240;2023-05-24T00:07:48;68354.28;;;10.43;100.00
6859;BME280;3468;42.824;23.240;2023-05-24T00:10:15;68365.69;;;10.37;100.00
6859;BME280;3468;42.824;23.240;2023-05-24T00:12:42;68398.91;;;10.51;100.00
6859;BME280;3468;42.824;23.240;2023-05-24T00:15:10;68376.03;;;10.35;100.00
6859;BME280;3468;42.824;23.240;2023-05-24T00:17:37;68242.38;;;9.62;100.00
6859;BME280;3468;42.824;23.240;2023-05-24T00:20:07;68352.22;;;10.39;100.00
6859;BME280;3468;42.824;23.240;2023-05-24T00:22:35;68364.28;;;10.38;100.00
6859;BME280;3468;42.824;23.240;2023-05-24T00:25:03;68302.69;;;10.03;100.00
6859;BME280;3468;42.824;23.240;2023-05-24T00:27:30;68355.59;;;10.16;100.00
6859;BME280;3468;42.824;23.240;2023-05-24T00:29:57;68360.53;;;10.22;100.00
6859;BME280;3468;42.824;23.240;2023-05-24T00:32:25;68349.81;;;10.22;100.00
6859;BME280;3468;42.824;23.240;2023-05-24T00:34:52;68374.78;;;10.19;100.00
6859;BME280;3468;42.824;23.240;2023-05-24T00:37:18;68346.16;;;10.10;100.00
6859;BME280;3468;42.824;23.240;2023-05-24T00:39:46;68315.44;;;10.07;100.00
6859;BME280;3468;42.824;23.240;2023-05-24T00:42:13;68332.81;;;10.05;100.00
6859;BME280;3468;42.824;23.240;2023-05-24T00:44:40;68333.72;;;10.08;100.00
6859;BME280;3468;42.824;23.240;2023-05-24T00:47:07;68563.06;;;9.38;100.00
6859;BME280;3468;42.824;23.240;2023-05-24T00:49:35;68319.47;;;10.00;100.00
6859;BME280;3468;42.824;23.240;2023-05-24T00:52:02;68300.47;;;10.16;100.00
6859;BME280;3468;42.824;23.240;2023-05-24T00:54:29;68190.63;;;9.72;100.00
6859;BME280;3468;42.824;23.240;2023-05-24T00:56:56;68670.13;;;9.92;100.00
6859;BME280;3468;42.824;23.240;2023-05-24T00:59:23;68340.16;;;10.18;100.00
6859;BME280;3468;42.824;23.240;2023-05-24T01:01:50;68349.13;;;10.17;100.00
6859;BME280;3468;42.824;23.240;2023-05-24T01:04:17;68341.44;;;10.12;100.00
6859;BME280;3468;42.824;23.240;2023-05-24T01:06:54;68274.72;;;10.09;100.00
6859;BME280;3468;42.824;23.240;2023-05-24T01:09:32;68387.88;;;9.61;100.00
6859;BME280;3468;42.824;23.240;2023-05-24T01:12:14;68309.59;;;10.09;100.00
6859;BME280;3468;42.824;23.240;2023-05-24T01:14:52;68329.47;;;10.06;100.00
6859;BME280;3468;42.824;23.240;2023-05-24T01:17:25;68306.38;;;9.93;100.00
6859;BME280;3468;42.824;23.240;2023-05-24T01:19:56;68306.50;;;9.76;100.00
6859;BME280;3468;42.824;23.240;2023-05-24T01:22:39;68254.00;;;9.54;100.00
6859;BME280;3468;42.824;23.240;2023-05-24T01:25:20;68167.06;;;9.73;100.00
6859;BME280;3468;42.824;23.240;2023-05-24T01:27:50;68258.63;;;9.26;100.00
6859;BME280;3468;42.824;23.240;2023-05-24T01:30:17;68282.34;;;9.77;100.00
6859;BME280;3468;42.824;23.240;2023-05-24T01:32:45;68259.75;;;9.27;100.00
6859;BME280;3468;42.824;23.240;2023-05-24T01:35:12;68290.28;;;9.79;100.00
6859;BME280;3468;42.824;23.240;2023-05-24T01:37:39;68243.34;;;9.21;100.00
6859;BME280;3468;42.824;23.240;2023-05-24T01:40:07;68223.84;;;9.74;100.00
6859;BME280;3468;42.824;23.240;2023-05-24T01:42:39;68448.16;;;9.37;100.00
6859;BME280;3468;42.824;23.240;2023-05-24T01:45:15;68221.69;;;9.55;100.00
6859;BME280;3468;42.824;23.240;2023-05-24T01:47:56;68154.25;;;9.06;100.00
6859;BME280;3468;42.824;23.240;2023-05-24T01:50:31;68352.03;;;8.71;100.00
6859;BME280;3468;42.824;23.240;2023-05-24T01:53:03;68229.75;;;9.40;100.00
6859;BME280;3468;42.824;23.240;2023-05-24T01:55:33;68249.50;;;9.44;100.00
6859;BME280;3468;42.824;23.240;2023-05-24T01:58:04;68189.47;;;9.23;100.00
6859;BME280;3468;42.824;23.240;2023-05-24T02:00:33;68192.78;;;9.32;100.00
6859;BME280;3468;42.824;23.240;2023-05-24T02:03:00;68228.16;;;9.32;100.00
6859;BME280;3468;42.824;23.240;2023-05-24T02:05:28;68231.28;;;9.00;100.00
6859;BME280;3468;42.824;23.240;2023-05-24T02:07:55;68249.06;;;9.37;100.00
6859;BME280;3468;42.824;23.240;2023-05-24T02:10:21;68157.97;;;9.33;100.00
6859;BME280;3468;42.824;23.240;2023-05-24T02:12:48;68161.19;;;9.27;100.00
6859;BME280;3468;42.824;23.240;2023-05-24T02:15:15;68244.38;;;8.85;100.00
6859;BME280;3468;42.824;23.240;2023-05-24T02:17:43;68234.16;;;9.24;100.00
6859;BME280;3468;42.824;23.240;2023-05-24T02:20:11;68266.06;;;9.32;100.00
6859;BME280;3468;42.824;23.240;2023-05-24T02:22:38;68173.06;;;8.85;100.00
6859;BME280;3468;42.824;23.240;2023-05-24T02:25:05;68205.63;;;9.41;100.00
6859;BME280;3468;42.824;23.240;2023-05-24T02:27:32;68266.66;;;9.33;100.00
6859;BME280;3468;42.824;23.240;2023-05-24T02:29:59;68182.22;;;9.36;100.00
6859;BME280;3468;42.824;23.240;2023-05-24T02:32:26;68195.97;;;9.37;100.00
6859;BME280;3468;42.824;23.240;2023-05-24T02:34:54;68267.56;;;9.25;100.00
6859;BME280;3468;42.824;23.240;2023-05-24T02:37:23;68166.56;;;8.70;100.00
6859;BME280;3468;42.824;23.240;2023-05-24T02:39:50;68111.69;;;8.64;100.00
6859;BME280;3468;42.824;23.240;2023-05-24T02:42:17;68173.06;;;9.06;100.00
6859;BME280;3468;42.824;23.240;2023-05-24T02:44:44;68197.28;;;9.10;100.00
6859;BME280;3468;42.824;23.240;2023-05-24T02:47:13;68145.34;;;8.52;100.00
6859;BME280;3468;42.824;23.240;2023-05-24T02:49:40;68290.53;;;8.40;100.00
6859;BME280;3468;42.824;23.240;2023-05-24T02:52:08;68216.38;;;8.87;100.00
6859;BME280;3468;42.824;23.240;2023-05-24T02:54:35;68117.56;;;8.09;100.00
6859;BME280;3468;42.824;23.240;2023-05-24T02:57:02;68127.66;;;8.74;100.00
6859;BME280;3468;42.824;23.240;2023-05-24T02:59:30;68224.97;;;8.73;100.00
6859;BME280;3468;42.824;23.240;2023-05-24T03:01:57;68149.56;;;8.32;100.00
6859;BME280;3468;42.824;23.240;2023-05-24T03:04:24;68215.00;;;8.88;100.00
6859;BME280;3468;42.824;23.240;2023-05-24T03:06:53;68218.88;;;8.87;100.00
6859;BME280;3468;42.824;23.240;2023-05-24T03:09:46;68185.84;;;8.57;100.00
6859;BME280;3468;42.824;23.240;2023-05-24T03:12:19;68239.69;;;7.21;100.00
6859;BME280;3468;42.824;23.240;2023-05-24T03:14:46;68220.97;;;8.80;100.00
6859;BME280;3468;42.824;23.240;2023-05-24T03:17:13;68088.22;;;8.44;100.00
6859;BME280;3468;42.824;23.240;2023-05-24T03:19:39;68337.50;;;8.55;100.00
6859;BME280;3468;42.824;23.240;2023-05-24T03:22:06;68217.28;;;8.90;100.00
6859;BME280;3468;42.824;23.240;2023-05-24T03:24:33;68238.41;;;8.82;100.00
6859;BME280;3468;42.824;23.240;2023-05-24T03:27:01;68244.13;;;8.98;100.00
6859;BME280;3468;42.824;23.240;2023-05-24T03:29:28;68199.84;;;8.88;100.00
6859;BME280;3468;42.824;23.240;2023-05-24T03:31:54;68217.50;;;9.21;100.00
6859;BME280;3468;42.824;23.240;2023-05-24T03:34:21;68260.22;;;9.23;100.00
6859;BME280;3468;42.824;23.240;2023-05-24T03:36:48;68536.63;;;8.63;100.00
6859;BME280;3468;42.824;23.240;2023-05-24T03:39:15;68354.66;;;9.26;100.00
6859;BME280;3468;42.824;23.240;2023-05-24T03:41:41;68294.00;;;9.48;100.00
6859;BME280;3468;42.824;23.240;2023-05-24T03:44:10;68174.69;;;9.04;100.00
6859;BME280;3468;42.824;23.240;2023-05-24T03:46:36;68237.81;;;9.25;100.00
6859;BME280;3468;42.824;23.240;2023-05-24T03:49:05;68306.28;;;9.56;100.00
6859;BME280;3468;42.824;23.240;2023-05-24T03:51:32;68597.38;;;9.48;100.00
6859;BME280;3468;42.824;23.240;2023-05-24T03:53:59;68321.78;;;9.80;100.00
6859;BME280;3468;42.824;23.240;2023-05-24T03:56:26;68339.47;;;9.91;100.00
6859;BME280;3468;42.824;23.240;2023-05-24T03:58:53;68334.16;;;10.26;100.00
6859;BME280;3468;42.824;23.240;2023-05-24T04:01:23;68370.59;;;10.44;100.00
6859;BME280;3468;42.824;23.240;2023-05-24T04:03:50;68373.00;;;10.50;100.00
6859;BME280;3468;42.824;23.240;2023-05-24T04:06:20;68323.06;;;10.44;100.00
6859;BME280;3468;42.824;23.240;2023-05-24T04:08:53;68351.19;;;10.79;100.00
6859;BME280;3468;42.824;23.240;2023-05-24T04:11:20;68354.63;;;10.82;100.00
6859;BME280;3468;42.824;23.240;2023-05-24T04:13:48;68366.00;;;10.88;100.00
6859;BME280;3468;42.824;23.240;2023-05-24T04:16:15;68429.81;;;10.95;100.00
6859;BME280;3468;42.824;23.240;2023-05-24T04:18:44;68404.13;;;11.29;100.00
6859;BME280;3468;42.824;23.240;2023-05-24T04:21:11;68399.72;;;11.45;100.00
6859;BME280;3468;42.824;23.240;2023-05-24T04:23:38;68315.84;;;10.73;100.00
6859;BME280;3468;42.824;23.240;2023-05-24T04:26:05;68679.31;;;11.56;100.00
6859;BME280;3468;42.824;23.240;2023-05-24T04:28:34;68516.31;;;11.78;100.00
6859;BME280;3468;42.824;23.240;2023-05-24T04:31:02;68435.00;;;11.73;100.00
6859;BME280;3468;42.824;23.240;2023-05-24T04:33:30;68475.41;;;11.91;100.00
6859;BME280;3468;42.824;23.240;2023-05-24T04:35:58;68517.34;;;12.64;100.00
6859;BME280;3468;42.824;23.240;2023-05-24T04:38:26;68517.28;;;12.75;100.00
6859;BME280;3468;42.824;23.240;2023-05-24T04:40:54;68593.06;;;12.78;100.00
6859;BME280;3468;42.824;23.240;2023-05-24T04:43:20;68592.63;;;12.82;100.00
6859;BME280;3468;42.824;23.240;2023-05-24T04:45:50;68553.91;;;12.97;100.00
6859;BME280;3468;42.824;23.240;2023-05-24T04:48:18;68512.69;;;12.71;100.00
6859;BME280;3468;42.824;23.240;2023-05-24T04:50:45;68639.50;;;13.36;100.00
6859;BME280;3468;42.824;23.240;2023-05-24T04:53:14;68521.66;;;13.22;100.00
6859;BME280;3468;42.824;23.240;2023-05-24T04:55:41;68699.50;;;13.92;100.00
6859;BME280;3468;42.824;23.240;2023-05-24T04:58:08;68735.63;;;14.14;100.00
6859;BME280;3468;42.824;23.240;2023-05-24T05:00:34;68748.50;;;14.34;100.00
6859;BME280;3468;42.824;23.240;2023-05-24T05:03:01;68753.47;;;14.55;100.00
6859;BME280;3468;42.824;23.240;2023-05-24T05:05:28;68670.16;;;14.23;100.00
6859;BME280;3468;42.824;23.240;2023-05-24T05:07:55;68714.56;;;14.96;100.00
6859;BME280;3468;42.824;23.240;2023-05-24T05:10:23;68805.34;;;15.15;100.00
6859;BME280;3468;42.824;23.240;2023-05-24T05:12:50;68783.34;;;15.07;100.00
6859;BME280;3468;42.824;23.240;2023-05-24T05:15:18;68815.66;;;15.50;100.00
6859;BME280;3468;42.824;23.240;2023-05-24T05:17:45;69238.13;;;15.73;100.00
6859;BME280;3468;42.824;23.240;2023-05-24T05:20:12;68827.75;;;15.76;100.00
6859;BME280;3468;42.824;23.240;2023-05-24T05:22:39;68916.75;;;16.00;100.00
6859;BME280;3468;42.824;23.240;2023-05-24T05:25:10;69015.34;;;15.62;100.00
6859;BME280;3468;42.824;23.240;2023-05-24T05:27:39;68814.91;;;16.07;100.00
6859;BME280;3468;42.824;23.240;2023-05-24T05:30:07;68865.72;;;16.04;100.00
6859;BME280;3468;42.824;23.240;2023-05-24T05:32:34;68936.81;;;16.23;100.00
6859;BME280;3468;42.824;23.240;2023-05-24T05:35:01;68822.56;;;16.22;100.00
6859;BME280;3468;42.824;23.240;2023-05-24T05:37:28;68810.72;;;16.10;100.00
6859;BME280;3468;42.824;23.240;2023-05-24T05:39:55;68883.16;;;16.43;100.00
6859;BME280;3468;42.824;23.240;2023-05-24T05:42:22;68898.53;;;15.97;100.00
6859;BME280;3468;42.824;23.240;2023-05-24T05:44:50;68825.28;;;16.15;100.00
6859;BME280;3468;42.824;23.240;2023-05-24T05:47:17;68925.09;;;16.86;100.00
6859;BME280;3468;42.824;23.240;2023-05-24T05:49:44;68901.91;;;16.77;100.00
6859;BME280;3468;42.824;23.240;2023-05-24T05:52:11;69005.50;;;17.17;100.00
6859;BME280;3468;42.824;23.240;2023-05-24T05:54:38;69067.44;;;17.94;97.99
6859;BME280;3468;42.824;23.240;2023-05-24T05:57:04;69084.16;;;17.89;95.08
6859;BME280;3468;42.824;23.240;2023-05-24T05:59:32;69118.44;;;18.66;92.59
6859;BME280;3468;42.824;23.240;2023-05-24T06:02:01;69192.34;;;19.06;91.96
6859;BME280;3468;42.824;23.240;2023-05-24T06:04:28;69211.19;;;19.24;90.86
6859;BME280;3468;42.824;23.240;2023-05-24T06:06:55;69525.50;;;18.96;91.12
6859;BME280;3468;42.824;23.240;2023-05-24T06:09:22;69199.44;;;18.85;90.02
6859;BME280;3468;42.824;23.240;2023-05-24T06:11:51;69332.31;;;18.80;92.86
6859;BME280;3468;42.824;23.240;2023-05-24T06:14:18;69262.66;;;19.68;91.26
6859;BME280;3468;42.824;23.240;2023-05-24T06:16:46;69282.63;;;19.67;89.83
6859;BME280;3468;42.824;23.240;2023-05-24T06:19:15;69237.06;;;19.57;88.23
6859;BME280;3468;42.824;23.240;2023-05-24T06:21:42;69199.31;;;19.55;87.21
6859;BME280;3468;42.824;23.240;2023-05-24T06:24:12;69292.97;;;19.72;87.18
6859;BME280;3468;42.824;23.240;2023-05-24T06:26:39;69302.19;;;19.95;88.99
6859;BME280;3468;42.824;23.240;2023-05-24T06:29:06;69206.50;;;19.79;88.29
6859;BME280;3468;42.824;23.240;2023-05-24T06:31:33;69277.56;;;19.91;88.78
6859;BME280;3468;42.824;23.240;2023-05-24T06:34:00;69321.91;;;20.16;90.62
6859;BME280;3468;42.824;23.240;2023-05-24T06:36:28;69326.72;;;20.33;87.19
6859;BME280;3468;42.824;23.240;2023-05-24T06:38:58;69362.03;;;21.08;85.67
6859;BME280;3468;42.824;23.240;2023-05-24T06:41:25;69419.19;;;21.43;83.30
6859;BME280;3468;42.824;23.240;2023-05-24T06:43:52;69484.47;;;21.86;81.66
6859;BME280;3468;42.824;23.240;2023-05-24T06:46:19;69551.38;;;22.16;79.01
6859;BME280;3468;42.824;23.240;2023-05-24T06:48:46;69572.28;;;22.34;70.43
6859;BME280;3468;42.824;23.240;2023-05-24T06:51:13;69559.34;;;22.58;67.81
6859;BME280;3468;42.824;23.240;2023-05-24T06:53:41;69565.75;;;22.40;66.52
6859;BME280;3468;42.824;23.240;2023-05-24T06:56:08;69607.66;;;22.88;65.20
6859;BME280;3468;42.824;23.240;2023-05-24T06:58:35;69637.34;;;23.51;65.97
6859;BME280;3468;42.824;23.240;2023-05-24T07:01:02;69659.59;;;23.35;64.03
6859;BME280;3468;42.824;23.240;2023-05-24T07:03:29;69735.63;;;23.47;62.61
6859;BME280;3468;42.824;23.240;2023-05-24T07:05:56;69717.88;;;23.54;64.56
6859;BME280;3468;42.824;23.240;2023-05-24T07:08:24;69712.66;;;23.49;64.46
6859;BME280;3468;42.824;23.240;2023-05-24T07:10:52;69749.16;;;23.71;62.84
6859;BME280;3468;42.824;23.240;2023-05-24T07:13:20;69744.59;;;23.76;63.88
6859;BME280;3468;42.824;23.240;2023-05-24T07:15:48;70011.09;;;23.48;65.10
6859;BME280;3468;42.824;23.240;2023-05-24T07:18:14;69714.91;;;23.47;65.70
6859;BME280;3468;42.824;23.240;2023-05-24T07:20:41;69683.84;;;23.42;65.22
6859;BME280;3468;42.824;23.240;2023-05-24T07:23:08;69740.38;;;23.60;65.60
6859;BME280;3468;42.824;23.240;2023-05-24T07:25:35;69757.28;;;23.78;65.46
6859;BME280;3468;42.824;23.240;2023-05-24T07:28:03;69736.09;;;23.87;65.33
6859;BME280;3468;42.824;23.240;2023-05-24T07:30:30;69764.66;;;23.96;64.67
6859;BME280;3468;42.824;23.240;2023-05-24T07:32:56;69767.03;;;24.02;63.48
6859;BME280;3468;42.824;23.240;2023-05-24T07:35:23;69666.28;;;23.43;62.54
6859;BME280;3468;42.824;23.240;2023-05-24T07:37:50;69764.09;;;23.95;65.26
6859;BME280;3468;42.824;23.240;2023-05-24T07:40:17;69755.69;;;23.90;62.07
6859;BME280;3468;42.824;23.240;2023-05-24T07:42:43;69771.38;;;24.04;62.76
6859;BME280;3468;42.824;23.240;2023-05-24T07:45:13;69781.69;;;24.28;59.72
6859;BME280;3468;42.824;23.240;2023-05-24T07:47:40;69811.63;;;24.27;59.98
6859;BME280;3468;42.824;23.240;2023-05-24T07:50:08;69840.59;;;24.71;60.58
6859;BME280;3468;42.824;23.240;2023-05-24T07:52:35;69913.94;;;25.14;61.77
6859;BME280;3468;42.824;23.240;2023-05-24T07:55:03;69940.16;;;25.40;59.41
6859;BME280;3468;42.824;23.240;2023-05-24T07:57:30;70004.19;;;25.66;53.46
6859;BME280;3468;42.824;23.240;2023-05-24T07:59:57;69993.88;;;25.75;53.61
6859;BME280;3468;42.824;23.240;2023-05-24T08:02:25;69861.34;;;25.00;54.44
6859;BME280;3468;42.824;23.240;2023-05-24T08:04:52;69981.16;;;25.73;54.15
6859;BME280;3468;42.824;23.240;2023-05-24T08:07:18;69995.00;;;25.72;52.22
6859;BME280;3468;42.824;23.240;2023-05-24T08:09:45;70067.34;;;26.22;50.46
6859;BME280;3468;42.824;23.240;2023-05-24T08:12:12;70114.06;;;26.75;50.25
6859;BME280;3468;42.824;23.240;2023-05-24T08:14:39;70105.63;;;26.99;51.83
6859;BME280;3468;42.824;23.240;2023-05-24T08:17:05;70083.72;;;26.73;50.44
6859;BME280;3468;42.824;23.240;2023-05-24T08:19:33;70053.69;;;26.41;49.34
6859;BME280;3468;42.824;23.240;2023-05-24T08:22:01;70030.06;;;26.19;48.52
6859;BME280;3468;42.824;23.240;2023-05-24T08:24:29;69985.63;;;25.88;47.25
6859;BME280;3468;42.824;23.240;2023-05-24T08:26:57;69958.81;;;25.94;48.93
6859;BME280;3468;42.824;23.240;2023-05-24T08:29:23;69929.53;;;25.76;47.83
6859;BME280;3468;42.824;23.240;2023-05-24T08:31:50;70007.94;;;25.96;46.71
6859;BME280;3468;42.824;23.240;2023-05-24T08:34:17;70117.03;;;26.49;49.01
6859;BME280;3468;42.824;23.240;2023-05-24T08:36:46;70084.25;;;26.69;45.40
6859;BME280;3468;42.824;23.240;2023-05-24T08:39:12;70112.50;;;26.91;45.34
6859;BME280;3468;42.824;23.240;2023-05-24T08:41:39;70135.47;;;27.08;44.75
6859;BME280;3468;42.824;23.240;2023-05-24T08:44:06;70149.63;;;27.43;46.55
6859;BME280;3468;42.824;23.240;2023-05-24T08:46:34;70223.28;;;27.56;46.73
6859;BME280;3468;42.824;23.240;2023-05-24T08:49:02;70287.94;;;28.02;45.79
6859;BME280;3468;42.824;23.240;2023-05-24T08:51:30;70353.78;;;28.49;41.91
6859;BME280;3468;42.824;23.240;2023-05-24T08:54:00;70352.53;;;28.73;40.37
6859;BME280;3468;42.824;23.240;2023-05-24T08:56:28;70425.75;;;28.90;40.52
6859;BME280;3468;42.824;23.240;2023-05-24T08:58:58;70282.72;;;28.02;39.95
6859;BME280;3468;42.824;23.240;2023-05-24T09:01:26;70166.44;;;27.86;39.79
6859;BME280;3468;42.824;23.240;2023-05-24T09:03:53;70290.75;;;28.29;40.88
6859;BME280;3468;42.824;23.240;2023-05-24T09:06:21;70511.63;;;27.58;40.32
6859;BME280;3468;42.824;23.240;2023-05-24T09:08:50;70573.47;;;27.92;39.46
6859;BME280;3468;42.824;23.240;2023-05-24T09:11:19;70124.03;;;27.25;40.10
6859;BME280;3468;42.824;23.240;2023-05-24T09:13:47;70202.88;;;27.44;40.31
6859;BME280;3468;42.824;23.240;2023-05-24T09:16:14;70237.22;;;27.64;38.88
6859;BME280;3468;42.824;23.240;2023-05-24T09:18:41;70187.25;;;27.44;39.53
6859;BME280;3468;42.824;23.240;2023-05-24T09:21:09;70220.47;;;27.67;40.11
6859;BME280;3468;42.824;23.240;2023-05-24T09:23:36;70203.03;;;27.61;37.72
6859;BME280;3468;42.824;23.240;2023-05-24T09:26:06;70269.91;;;27.96;38.55
6859;BME280;3468;42.824;23.240;2023-05-24T09:28:35;70243.34;;;27.67;37.92
6859;BME280;3468;42.824;23.240;2023-05-24T09:31:03;70258.91;;;27.95;38.91
6859;BME280;3468;42.824;23.240;2023-05-24T09:33:30;70318.00;;;28.30;38.86
6859;BME280;3468;42.824;23.240;2023-05-24T09:35:58;70370.03;;;28.50;36.70
6859;BME280;3468;42.824;23.240;2023-05-24T09:38:26;70390.56;;;28.76;36.94
6859;BME280;3468;42.824;23.240;2023-05-24T09:40:58;70409.59;;;29.03;37.02
6859;BME280;3468;42.824;23.240;2023-05-24T09:43:25;70367.84;;;29.08;38.12
6859;BME280;3468;42.824;23.240;2023-05-24T09:45:55;70498.78;;;29.48;34.96
6859;BME280;3468;42.824;23.240;2023-05-24T09:48:25;70482.22;;;29.49;34.02
6859;BME280;3468;42.824;23.240;2023-05-24T09:51:12;70412.34;;;29.21;32.93
6859;BME280;3468;42.824;23.240;2023-05-24T09:53:43;70364.25;;;28.87;34.86
6859;BME280;3468;42.824;23.240;2023-05-24T09:56:11;70390.59;;;28.80;33.61
6859;BME280;3468;42.824;23.240;2023-05-24T09:58:38;70494.69;;;29.49;34.64
6859;BME280;3468;42.824;23.240;2023-05-24T10:01:09;70391.13;;;28.76;33.93
6859;BME280;3468;42.824;23.240;2023-05-24T10:03:36;70461.28;;;29.45;34.16
6859;BME280;3468;42.824;23.240;2023-05-24T10:06:04;70393.03;;;29.00;33.87
6859;BME280;3468;42.824;23.240;2023-05-24T10:08:33;70435.88;;;29.25;34.51
6859;BME280;3468;42.824;23.240;2023-05-24T10:11:01;70452.44;;;29.24;34.72
6859;BME280;3468;42.824;23.240;2023-05-24T10:13:30;70569.34;;;29.48;33.84
6859;BME280;3468;42.824;23.240;2023-05-24T10:15:57;70473.13;;;29.35;32.69
6859;BME280;3468;42.824;23.240;2023-05-24T10:18:26;70441.44;;;29.28;33.00
6859;BME280;3468;42.824;23.240;2023-05-24T10:20:53;70510.88;;;29.78;33.46
6859;BME280;3468;42.824;23.240;2023-05-24T10:23:21;70540.63;;;29.94;33.68
6859;BME280;3468;42.824;23.240;2023-05-24T10:25:55;70467.13;;;29.54;32.69
6859;BME280;3468;42.824;23.240;2023-05-24T10:28:26;70373.81;;;28.88;34.76
6859;BME280;3468;42.824;23.240;2023-05-24T10:31:01;70221.69;;;27.77;35.18
6859;BME280;3468;42.824;23.240;2023-05-24T10:33:32;70185.41;;;27.29;35.11
6859;BME280;3468;42.824;23.240;2023-05-24T10:36:01;70192.22;;;27.46;36.18
6859;BME280;3468;42.824;23.240;2023-05-24T10:38:29;70250.44;;;27.86;37.13
6859;BME280;3468;42.824;23.240;2023-05-24T10:40:56;70262.66;;;27.59;35.70
6859;BME280;3468;42.824;23.240;2023-05-24T10:43:23;70086.44;;;26.87;38.75
6859;BME280;3468;42.824;23.240;2023-05-24T10:45:51;70121.44;;;26.88;39.54
6859;BME280;3468;42.824;23.240;2023-05-24T10:48:38;70165.31;;;27.47;36.88
6859;BME280;3468;42.824;23.240;2023-05-24T10:51:28;70138.09;;;27.08;37.70
6859;BME280;3468;42.824;23.240;2023-05-24T10:53:56;70123.16;;;26.85;39.92
6859;BME280;3468;42.824;23.240;2023-05-24T10:56:26;70173.03;;;27.01;39.99
6859;BME280;3468;42.824;23.240;2023-05-24T10:58:59;70145.38;;;27.12;38.38
6859;BME280;3468;42.824;23.240;2023-05-24T11:01:27;70086.25;;;26.98;37.34
6859;BME280;3468;42.824;23.240;2023-05-24T11:04:07;70233.66;;;27.89;38.00
6859;BME280;3468;42.824;23.240;2023-05-24T11:06:47;70269.44;;;28.09;37.98
6859;BME280;3468;42.824;23.240;2023-05-24T11:09:15;70292.25;;;28.37;37.78
6859;BME280;3468;42.824;23.240;2023-05-24T11:11:45;70268.66;;;28.19;37.25
6859;BME280;3468;42.824;23.240;2023-05-24T11:14:17;70295.59;;;28.18;38.45
6859;BME280;3468;42.824;23.240;2023-05-24T11:16:45;70238.81;;;27.81;37.53
6859;BME280;3468;42.824;23.240;2023-05-24T11:19:18;70204.50;;;27.60;39.60
6859;BME280;3468;42.824;23.240;2023-05-24T11:21:46;70214.13;;;27.38;38.92
6859;BME280;3468;42.824;23.240;2023-05-24T11:24:14;70160.47;;;27.21;39.06
6859;BME280;3468;42.824;23.240;2023-05-24T11:26:42;70103.63;;;27.03;39.43
6859;BME280;3468;42.824;23.240;2023-05-24T11:29:11;70087.28;;;26.85;40.30
6859;BME280;3468;42.824;23.240;2023-05-24T11:31:46;70105.19;;;26.83;40.71
6859;BME280;3468;42.824;23.240;2023-05-24T11:34:13;70107.53;;;26.85;41.67
6859;BME280;3468;42.824;23.240;2023-05-24T11:36:41;70216.97;;;27.64;38.19
6859;BME280;3468;42.824;23.240;2023-05-24T11:39:09;70304.53;;;28.52;38.05
6859;BME280;3468;42.824;23.240;2023-05-24T11:41:37;70549.69;;;28.96;35.98
6859;BME280;3468;42.824;23.240;2023-05-24T11:44:06;70469.28;;;29.71;36.96
6859;BME280;3468;42.824;23.240;2023-05-24T11:46:33;70518.81;;;29.91;35.42
6859;BME280;3468;42.824;23.240;2023-05-24T11:49:01;70617.75;;;30.50;36.20
6859;BME280;3468;42.824;23.240;2023-05-24T11:51:29;70691.41;;;30.95;33.75
6859;BME280;3468;42.824;23.240;2023-05-24T11:53:58;70749.06;;;31.46;33.45
6859;BME280;3468;42.824;23.240;2023-05-24T11:56:27;70768.66;;;31.60;33.66
6859;BME280;3468;42.824;23.240;2023-05-24T11:59:02;70800.81;;;31.78;34.52
6859;BME280;3468;42.824;23.240;2023-05-24T12:01:32;70785.63;;;31.70;29.73
6859;BME280;3468;42.824;23.240;2023-05-24T12:03:59;70808.19;;;31.91;33.96
6859;BME280;3468;42.824;23.240;2023-05-24T12:06:33;70792.25;;;32.07;34.25
6859;BME280;3468;42.824;23.240;2023-05-24T12:09:02;70898.22;;;32.32;30.14
6859;BME280;3468;42.824;23.240;2023-05-24T12:11:32;70851.72;;;32.08;32.02
6859;BME280;3468;42.824;23.240;2023-05-24T12:13:59;70765.84;;;31.80;30.51
6859;BME280;3468;42.824;23.240;2023-05-24T12:16:26;70799.19;;;31.95;32.65
6859;BME280;3468;42.824;23.240;2023-05-24T12:18:57;70716.69;;;31.38;30.50
6859;BME280;3468;42.824;23.240;2023-05-24T12:21:24;70669.25;;;30.94;33.81
6859;BME280;3468;42.824;23.240;2023-05-24T12:23:51;70545.53;;;30.29;32.13
6859;BME280;3468;42.824;23.240;2023-05-24T12:26:20;70540.81;;;30.21;33.26
6859;BME280;3468;42.824;23.240;2023-05-24T12:28:52;70506.25;;;29.78;34.35
6859;BME280;3468;42.824;23.240;2023-05-24T12:31:19;70415.63;;;29.35;35.45
6859;BME280;3468;42.824;23.240;2023-05-24T12:33:46;70382.59;;;29.00;36.23
6859;BME280;3468;42.824;23.240;2023-05-24T12:36:13;70378.22;;;28.94;35.98
6859;BME280;3468;42.824;23.240;2023-05-24T12:38:40;70398.25;;;28.96;36.82
6859;BME280;3468;42.824;23.240;2023-05-24T12:41:07;70482.09;;;29.31;36.69
6859;BME280;3468;42.824;23.240;2023-05-24T12:43:37;70447.16;;;29.61;35.85
6859;BME280;3468;42.824;23.240;2023-05-24T12:46:04;70512.50;;;30.03;34.19
6859;BME280;3468;42.824;23.240;2023-05-24T12:48:33;70565.06;;;30.39;36.08
6859;BME280;3468;42.824;23.240;2023-05-24T12:51:00;70517.13;;;30.03;34.77
6859;BME280;3468;42.824;23.240;2023-05-24T12:53:28;70517.50;;;29.72;34.47
6859;BME280;3468;42.824;23.240;2023-05-24T12:55:57;70431.00;;;29.32;37.80
6859;BME280;3468;42.824;23.240;2023-05-24T12:58:24;70393.66;;;29.05;36.07
6859;BME280;3468;42.824;23.240;2023-05-24T13:00:53;70344.41;;;28.70;35.86
6859;BME280;3468;42.824;23.240;2023-05-24T13:03:20;70309.72;;;28.47;38.01
6859;BME280;3468;42.824;23.240;2023-05-24T13:05:47;70318.63;;;28.35;40.21
6859;BME280;3468;42.824;23.240;2023-05-24T13:08:14;70268.41;;;28.26;37.45
6859;BME280;3468;42.824;23.240;2023-05-24T13:10:40;70253.78;;;28.04;38.87
6859;BME280;3468;42.824;23.240;2023-05-24T13:13:07;70173.31;;;27.74;39.24